<?xml version="1.0" encoding="UTF-8" standalone="no" ?>
<gpx xmlns="http://www.topografix.com/GPX/1/1" xmlns:xsi="http://www.w3.org/2001/XMLSchema-instance" xsi:schemaLocation="http://www.topografix.com/GPX/1/1 http://www.topografix.com/GPX/1/1/gpx.xsd" version="1.1" creator="VisuGPX - https://www.visugpx.com">
  <metadata>
    <name>Bagnols -Pennafort -Fille d'Isnard</name>
    <desc><![CDATA[avec RA]]></desc>
  </metadata>
  <trk>
    <name><![CDATA[Bagnols -Pennafort -Fille d'Isnard_17]]></name>
    <trkseg>
      <trkpt lat="43.55666" lon="6.79457">
        <ele>149</ele>
        <time>2025-10-24T06:33:10.000Z</time>
        <extensions>
          <visugpx:TrkExtension xmlns:visugpx="https://www.visugpx.com/editgpx/">
            <visugpx:node>1</visugpx:node>
            </visugpx:TrkExtension>
        </extensions>
      </trkpt>
      <trkpt lat="43.55662" lon="6.79458">
        <ele>149</ele>
        <time>2025-10-24T06:33:11.000Z</time>
      </trkpt>
      <trkpt lat="43.55659" lon="6.79459">
        <ele>149</ele>
        <time>2025-10-24T06:33:12.000Z</time>
      </trkpt>
      <trkpt lat="43.55656" lon="6.7946">
        <ele>149</ele>
        <time>2025-10-24T06:33:13.000Z</time>
      </trkpt>
      <trkpt lat="43.55652" lon="6.79461">
        <ele>149</ele>
        <time>2025-10-24T06:33:14.000Z</time>
      </trkpt>
      <trkpt lat="43.55648" lon="6.79462">
        <ele>149</ele>
        <time>2025-10-24T06:33:15.000Z</time>
      </trkpt>
      <trkpt lat="43.55644" lon="6.79463">
        <ele>149</ele>
        <time>2025-10-24T06:33:16.000Z</time>
      </trkpt>
      <trkpt lat="43.5564" lon="6.79464">
        <ele>149.1</ele>
        <time>2025-10-24T06:33:17.000Z</time>
      </trkpt>
      <trkpt lat="43.55636" lon="6.79464">
        <ele>149.1</ele>
        <time>2025-10-24T06:33:18.000Z</time>
      </trkpt>
      <trkpt lat="43.55632" lon="6.79464">
        <ele>149.1</ele>
        <time>2025-10-24T06:33:19.000Z</time>
      </trkpt>
      <trkpt lat="43.55628" lon="6.79464">
        <ele>149.2</ele>
        <time>2025-10-24T06:33:20.000Z</time>
      </trkpt>
      <trkpt lat="43.55624" lon="6.79464">
        <ele>149.2</ele>
        <time>2025-10-24T06:33:21.000Z</time>
      </trkpt>
      <trkpt lat="43.55619" lon="6.79464">
        <ele>149.3</ele>
        <time>2025-10-24T06:33:22.000Z</time>
      </trkpt>
      <trkpt lat="43.55615" lon="6.79464">
        <ele>149.4</ele>
        <time>2025-10-24T06:33:23.000Z</time>
      </trkpt>
      <trkpt lat="43.55611" lon="6.79463">
        <ele>149.4</ele>
        <time>2025-10-24T06:33:24.000Z</time>
      </trkpt>
      <trkpt lat="43.55607" lon="6.79463">
        <ele>149.5</ele>
        <time>2025-10-24T06:33:25.000Z</time>
      </trkpt>
      <trkpt lat="43.55603" lon="6.79462">
        <ele>149.5</ele>
        <time>2025-10-24T06:33:26.000Z</time>
      </trkpt>
      <trkpt lat="43.556" lon="6.79461">
        <ele>149.6</ele>
        <time>2025-10-24T06:33:27.000Z</time>
      </trkpt>
      <trkpt lat="43.55596" lon="6.79459">
        <ele>149.6</ele>
        <time>2025-10-24T06:33:28.000Z</time>
      </trkpt>
      <trkpt lat="43.55592" lon="6.79457">
        <ele>149.6</ele>
        <time>2025-10-24T06:33:29.000Z</time>
      </trkpt>
      <trkpt lat="43.55588" lon="6.79456">
        <ele>149.6</ele>
        <time>2025-10-24T06:33:30.000Z</time>
      </trkpt>
      <trkpt lat="43.55584" lon="6.79454">
        <ele>149.6</ele>
        <time>2025-10-24T06:33:31.000Z</time>
      </trkpt>
      <trkpt lat="43.5558" lon="6.79452">
        <ele>149.6</ele>
        <time>2025-10-24T06:33:32.000Z</time>
      </trkpt>
      <trkpt lat="43.55576" lon="6.7945">
        <ele>149.7</ele>
        <time>2025-10-24T06:33:33.000Z</time>
      </trkpt>
      <trkpt lat="43.55572" lon="6.79448">
        <ele>149.7</ele>
        <time>2025-10-24T06:33:34.000Z</time>
      </trkpt>
      <trkpt lat="43.55568" lon="6.79446">
        <ele>149.8</ele>
        <time>2025-10-24T06:33:35.000Z</time>
      </trkpt>
      <trkpt lat="43.55565" lon="6.79445">
        <ele>149.8</ele>
        <time>2025-10-24T06:33:36.000Z</time>
      </trkpt>
      <trkpt lat="43.55561" lon="6.79444">
        <ele>149.9</ele>
        <time>2025-10-24T06:33:37.000Z</time>
      </trkpt>
      <trkpt lat="43.55556" lon="6.79442">
        <ele>149.9</ele>
        <time>2025-10-24T06:33:38.000Z</time>
      </trkpt>
      <trkpt lat="43.55553" lon="6.79441">
        <ele>150</ele>
        <time>2025-10-24T06:33:39.000Z</time>
      </trkpt>
      <trkpt lat="43.55549" lon="6.7944">
        <ele>150</ele>
        <time>2025-10-24T06:33:40.000Z</time>
      </trkpt>
      <trkpt lat="43.55546" lon="6.79439">
        <ele>150</ele>
        <time>2025-10-24T06:33:41.000Z</time>
      </trkpt>
      <trkpt lat="43.55543" lon="6.79438">
        <ele>150</ele>
        <time>2025-10-24T06:33:42.000Z</time>
      </trkpt>
      <trkpt lat="43.55539" lon="6.79438">
        <ele>150</ele>
        <time>2025-10-24T06:33:43.000Z</time>
      </trkpt>
      <trkpt lat="43.55536" lon="6.79438">
        <ele>150</ele>
        <time>2025-10-24T06:33:44.000Z</time>
      </trkpt>
      <trkpt lat="43.55533" lon="6.79437">
        <ele>150</ele>
        <time>2025-10-24T06:33:45.000Z</time>
      </trkpt>
      <trkpt lat="43.5553" lon="6.79437">
        <ele>150</ele>
        <time>2025-10-24T06:33:46.000Z</time>
      </trkpt>
      <trkpt lat="43.55527" lon="6.79436">
        <ele>150</ele>
        <time>2025-10-24T06:33:47.000Z</time>
      </trkpt>
      <trkpt lat="43.55524" lon="6.79435">
        <ele>150</ele>
        <time>2025-10-24T06:33:48.000Z</time>
      </trkpt>
      <trkpt lat="43.55521" lon="6.79434">
        <ele>150</ele>
        <time>2025-10-24T06:33:49.000Z</time>
      </trkpt>
      <trkpt lat="43.55519" lon="6.79434">
        <ele>149.9</ele>
        <time>2025-10-24T06:33:50.000Z</time>
      </trkpt>
      <trkpt lat="43.55517" lon="6.79434">
        <ele>149.9</ele>
        <time>2025-10-24T06:33:51.000Z</time>
      </trkpt>
      <trkpt lat="43.55516" lon="6.79435">
        <ele>149.9</ele>
        <time>2025-10-24T06:33:52.000Z</time>
      </trkpt>
      <trkpt lat="43.55516" lon="6.79437">
        <ele>149.9</ele>
        <time>2025-10-24T06:33:53.000Z</time>
      </trkpt>
      <trkpt lat="43.55517" lon="6.79438">
        <ele>149.9</ele>
        <time>2025-10-24T06:33:54.000Z</time>
      </trkpt>
      <trkpt lat="43.55519" lon="6.79438">
        <ele>149.9</ele>
        <time>2025-10-24T06:33:55.000Z</time>
      </trkpt>
      <trkpt lat="43.55521" lon="6.79438">
        <ele>150</ele>
        <time>2025-10-24T06:33:56.000Z</time>
      </trkpt>
      <trkpt lat="43.55524" lon="6.79439">
        <ele>150</ele>
        <time>2025-10-24T06:33:57.000Z</time>
      </trkpt>
      <trkpt lat="43.55527" lon="6.79439">
        <ele>150</ele>
        <time>2025-10-24T06:33:58.000Z</time>
      </trkpt>
      <trkpt lat="43.55531" lon="6.79438">
        <ele>150</ele>
        <time>2025-10-24T06:33:59.000Z</time>
      </trkpt>
      <trkpt lat="43.55534" lon="6.79439">
        <ele>150</ele>
        <time>2025-10-24T06:34:00.000Z</time>
      </trkpt>
      <trkpt lat="43.55537" lon="6.79439">
        <ele>150</ele>
        <time>2025-10-24T06:34:01.000Z</time>
      </trkpt>
      <trkpt lat="43.55542" lon="6.79439">
        <ele>150</ele>
        <time>2025-10-24T06:34:02.000Z</time>
      </trkpt>
      <trkpt lat="43.55545" lon="6.7944">
        <ele>150</ele>
        <time>2025-10-24T06:34:03.000Z</time>
      </trkpt>
      <trkpt lat="43.55549" lon="6.79441">
        <ele>150</ele>
        <time>2025-10-24T06:34:04.000Z</time>
      </trkpt>
      <trkpt lat="43.55552" lon="6.79442">
        <ele>150</ele>
        <time>2025-10-24T06:34:05.000Z</time>
      </trkpt>
      <trkpt lat="43.55556" lon="6.79443">
        <ele>149.9</ele>
        <time>2025-10-24T06:34:06.000Z</time>
      </trkpt>
      <trkpt lat="43.55559" lon="6.79444">
        <ele>149.9</ele>
        <time>2025-10-24T06:34:07.000Z</time>
      </trkpt>
      <trkpt lat="43.55563" lon="6.79445">
        <ele>149.9</ele>
        <time>2025-10-24T06:34:08.000Z</time>
      </trkpt>
      <trkpt lat="43.55567" lon="6.79446">
        <ele>149.8</ele>
        <time>2025-10-24T06:34:09.000Z</time>
      </trkpt>
      <trkpt lat="43.5557" lon="6.79447">
        <ele>149.8</ele>
        <time>2025-10-24T06:34:10.000Z</time>
      </trkpt>
      <trkpt lat="43.55573" lon="6.79448">
        <ele>149.7</ele>
        <time>2025-10-24T06:34:11.000Z</time>
      </trkpt>
      <trkpt lat="43.55577" lon="6.7945">
        <ele>149.7</ele>
        <time>2025-10-24T06:34:12.000Z</time>
      </trkpt>
      <trkpt lat="43.55581" lon="6.79452">
        <ele>149.6</ele>
        <time>2025-10-24T06:34:13.000Z</time>
      </trkpt>
      <trkpt lat="43.55583" lon="6.79454">
        <ele>149.6</ele>
        <time>2025-10-24T06:34:14.000Z</time>
      </trkpt>
      <trkpt lat="43.55587" lon="6.79456">
        <ele>149.6</ele>
        <time>2025-10-24T06:34:15.000Z</time>
      </trkpt>
      <trkpt lat="43.55592" lon="6.79458">
        <ele>149.6</ele>
        <time>2025-10-24T06:34:16.000Z</time>
      </trkpt>
      <trkpt lat="43.55596" lon="6.79459">
        <ele>149.6</ele>
        <time>2025-10-24T06:34:17.000Z</time>
      </trkpt>
      <trkpt lat="43.556" lon="6.7946">
        <ele>149.6</ele>
        <time>2025-10-24T06:34:18.000Z</time>
      </trkpt>
      <trkpt lat="43.55603" lon="6.79461">
        <ele>149.5</ele>
        <time>2025-10-24T06:34:19.000Z</time>
      </trkpt>
      <trkpt lat="43.55607" lon="6.79462">
        <ele>149.5</ele>
        <time>2025-10-24T06:34:20.000Z</time>
      </trkpt>
      <trkpt lat="43.55612" lon="6.79463">
        <ele>149.4</ele>
        <time>2025-10-24T06:34:21.000Z</time>
      </trkpt>
      <trkpt lat="43.55617" lon="6.79463">
        <ele>149.3</ele>
        <time>2025-10-24T06:34:22.000Z</time>
      </trkpt>
      <trkpt lat="43.55621" lon="6.79464">
        <ele>149.3</ele>
        <time>2025-10-24T06:34:23.000Z</time>
      </trkpt>
      <trkpt lat="43.55625" lon="6.79464">
        <ele>149.2</ele>
        <time>2025-10-24T06:34:24.000Z</time>
      </trkpt>
      <trkpt lat="43.5563" lon="6.79464">
        <ele>149.1</ele>
        <time>2025-10-24T06:34:25.000Z</time>
      </trkpt>
      <trkpt lat="43.55635" lon="6.79464">
        <ele>149.1</ele>
        <time>2025-10-24T06:34:26.000Z</time>
      </trkpt>
      <trkpt lat="43.5564" lon="6.79464">
        <ele>149.1</ele>
        <time>2025-10-24T06:34:27.000Z</time>
      </trkpt>
      <trkpt lat="43.55644" lon="6.79463">
        <ele>149</ele>
        <time>2025-10-24T06:34:28.000Z</time>
      </trkpt>
      <trkpt lat="43.55649" lon="6.79462">
        <ele>149</ele>
        <time>2025-10-24T06:34:29.000Z</time>
      </trkpt>
      <trkpt lat="43.55655" lon="6.79461">
        <ele>149</ele>
        <time>2025-10-24T06:34:30.000Z</time>
      </trkpt>
      <trkpt lat="43.55659" lon="6.79461">
        <ele>149</ele>
        <time>2025-10-24T06:34:31.000Z</time>
      </trkpt>
      <trkpt lat="43.55664" lon="6.7946">
        <ele>149</ele>
        <time>2025-10-24T06:34:32.000Z</time>
      </trkpt>
      <trkpt lat="43.55667" lon="6.7946">
        <ele>149</ele>
        <time>2025-10-24T06:34:33.000Z</time>
      </trkpt>
      <trkpt lat="43.55672" lon="6.79459">
        <ele>148.9</ele>
        <time>2025-10-24T06:34:34.000Z</time>
      </trkpt>
      <trkpt lat="43.55677" lon="6.79457">
        <ele>148.9</ele>
        <time>2025-10-24T06:34:35.000Z</time>
      </trkpt>
      <trkpt lat="43.55681" lon="6.79456">
        <ele>148.9</ele>
        <time>2025-10-24T06:34:36.000Z</time>
      </trkpt>
      <trkpt lat="43.55686" lon="6.79455">
        <ele>148.8</ele>
        <time>2025-10-24T06:34:37.000Z</time>
      </trkpt>
      <trkpt lat="43.55689" lon="6.79454">
        <ele>148.8</ele>
        <time>2025-10-24T06:34:38.000Z</time>
      </trkpt>
      <trkpt lat="43.55693" lon="6.79453">
        <ele>148.8</ele>
        <time>2025-10-24T06:34:39.000Z</time>
      </trkpt>
      <trkpt lat="43.55699" lon="6.79452">
        <ele>148.8</ele>
        <time>2025-10-24T06:34:40.000Z</time>
      </trkpt>
      <trkpt lat="43.55703" lon="6.79452">
        <ele>148.7</ele>
        <time>2025-10-24T06:34:41.000Z</time>
      </trkpt>
      <trkpt lat="43.55706" lon="6.79451">
        <ele>148.7</ele>
        <time>2025-10-24T06:34:42.000Z</time>
      </trkpt>
      <trkpt lat="43.5571" lon="6.79451">
        <ele>148.7</ele>
        <time>2025-10-24T06:34:43.000Z</time>
      </trkpt>
      <trkpt lat="43.55715" lon="6.7945">
        <ele>148.7</ele>
        <time>2025-10-24T06:34:44.000Z</time>
      </trkpt>
      <trkpt lat="43.5572" lon="6.79448">
        <ele>148.6</ele>
        <time>2025-10-24T06:34:45.000Z</time>
      </trkpt>
      <trkpt lat="43.55725" lon="6.79447">
        <ele>148.6</ele>
        <time>2025-10-24T06:34:46.000Z</time>
      </trkpt>
      <trkpt lat="43.55728" lon="6.79446">
        <ele>148.6</ele>
        <time>2025-10-24T06:34:47.000Z</time>
      </trkpt>
      <trkpt lat="43.55733" lon="6.79445">
        <ele>148.5</ele>
        <time>2025-10-24T06:34:48.000Z</time>
      </trkpt>
      <trkpt lat="43.55737" lon="6.79444">
        <ele>148.5</ele>
        <time>2025-10-24T06:34:49.000Z</time>
      </trkpt>
    </trkseg>
  </trk>
</gpx>